Time,TemperatureF,DewpointF,PressureIn,WindDirection,WindDirectionDegrees,WindSpeedMPH,WindSpeedGustMPH,Humidity,HourlyPrecipIn,Conditions,Clouds,dailyrainin,SoftwareType,DateUTC
2013-08-21 12:00:00,83.0,70.0,30.17,SSE,151,5.0,12.0,66,0.00,,,-99.99,,2013-08-21 16:00:00,
2013-08-21 12:43:00,83.0,70.0,30.17,SSE,151,5.0,12.0,66,0.00,,,-99.99,,2013-08-21 16:43:00,
2013-08-21 12:53:00,83.0,70.0,30.17,SSE,151,5.0,12.0,66,0.00,,,-99.99,,2013-08-21 16:53:00,
2013-08-21 13:00:00,79.0,72.0,30.16,SSE,152,11.0,-999.0,78,-99.99,,,-99.99,,2013-08-21 17:00:00,
2013-08-21 13:43:00,79.0,72.0,30.16,SSE,152,11.0,-999.0,78,-99.99,,,-99.99,,2013-08-21 17:43:00,
2013-08-21 13:53:00,79.0,72.0,30.16,SSE,152,11.0,-999.0,78,-99.99,,,-99.99,,2013-08-21 17:53:00,
2013-08-21 14:00:00,79.0,73.0,30.15,South,177,12.0,16.0,80,0.00,,,-99.99,,2013-08-21 18:00:00,
2013-08-21 14:42:00,79.0,73.0,30.15,South,177,12.0,16.0,80,0.00,,,-99.99,,2013-08-21 18:42:00,
2013-08-21 14:52:00,79.0,73.0,30.15,South,177,12.0,16.0,80,0.00,,,-99.99,,2013-08-21 18:52:00,
2013-08-21 15:00:00,79.0,73.0,30.13,SSE,168,10.0,16.0,81,0.00,,,-99.99,,2013-08-21 19:00:00,
2013-08-21 15:42:00,79.0,73.0,30.13,SSE,168,10.0,16.0,81,0.00,,,-99.99,,2013-08-21 19:42:00,
2013-08-21 15:53:00,79.0,73.0,30.13,SSE,168,10.0,16.0,81,0.00,,,-99.99,,2013-08-21 19:53:00,
2013-08-21 16:00:00,79.0,72.0,30.12,SSE,163,12.0,16.0,78,0.00,,,-99.99,,2013-08-21 20:00:00,
2013-08-21 16:43:00,79.0,72.0,30.12,SSE,163,12.0,16.0,78,0.00,,,-99.99,,2013-08-21 20:43:00,
2013-08-21 16:52:00,79.0,72.0,30.12,SSE,163,12.0,16.0,78,0.00,,,-99.99,,2013-08-21 20:52:00,
2013-08-21 17:00:00,78.0,73.0,30.10,SSE,157,10.0,15.0,83,0.00,,,-99.99,,2013-08-21 21:00:00,
2013-08-21 17:45:00,78.0,73.0,30.10,SSE,157,10.0,15.0,83,0.00,,,-99.99,,2013-08-21 21:45:00,
2013-08-21 17:55:00,78.0,73.0,30.10,SSE,157,10.0,15.0,83,0.00,,,-99.99,,2013-08-21 21:55:00,
2013-08-21 18:00:00,78.0,72.0,30.09,SSE,162,8.0,13.0,84,0.00,,,-99.99,,2013-08-21 22:00:00,
2013-08-21 18:44:00,78.0,72.0,30.09,SSE,162,8.0,13.0,84,0.00,,,-99.99,,2013-08-21 22:44:00,
2013-08-21 18:53:00,78.0,72.0,30.09,SSE,162,8.0,13.0,84,0.00,,,-99.99,,2013-08-21 22:53:00,
2013-08-21 19:00:00,77.0,72.0,30.08,SSW,208,4.0,14.0,85,0.00,,,-99.99,,2013-08-21 23:00:00,
2013-08-21 19:43:00,77.0,72.0,30.08,SSW,208,4.0,14.0,85,0.00,,,-99.99,,2013-08-21 23:43:00,
2013-08-21 19:53:00,77.0,72.0,30.08,SSW,208,4.0,14.0,85,0.00,,,-99.99,,2013-08-21 23:53:00,
2013-08-21 20:00:00,78.0,73.0,30.08,SSW,206,5.0,11.0,86,0.00,,,-99.99,,2013-08-22 00:00:00,
2013-08-21 20:42:00,78.0,73.0,30.08,SSW,206,5.0,11.0,86,0.00,,,-99.99,,2013-08-22 00:42:00,
2013-08-21 20:52:00,78.0,73.0,30.08,SSW,206,5.0,11.0,86,0.00,,,-99.99,,2013-08-22 00:52:00,
2013-08-21 21:00:00,78.0,70.0,30.08,SSW,206,11.0,12.0,76,0.00,,,-99.99,,2013-08-22 01:00:00,
2013-08-21 21:42:00,78.0,70.0,30.08,SSW,206,11.0,12.0,76,0.00,,,-99.99,,2013-08-22 01:42:00,
2013-08-21 21:52:00,78.0,70.0,30.08,SSW,206,11.0,12.0,76,0.00,,,-99.99,,2013-08-22 01:52:00,
2013-08-21 22:00:00,77.0,68.0,30.09,SSW,209,4.0,12.0,75,0.00,,,-99.99,,2013-08-22 02:00:00,
2013-08-21 22:52:00,77.0,68.0,30.09,SSW,209,4.0,12.0,75,0.00,,,-99.99,,2013-08-22 02:52:00,
2013-08-21 23:00:00,76.0,67.0,30.08,SW,230,7.0,12.0,75,0.00,,,-99.99,,2013-08-22 03:00:00,
2013-08-21 23:45:00,76.0,67.0,30.08,SW,230,7.0,12.0,75,0.00,,,-99.99,,2013-08-22 03:45:00,
2013-08-21 23:54:00,76.0,67.0,30.08,SW,230,7.0,12.0,75,0.00,,,-99.99,,2013-08-22 03:54:00,